Rochester, NY (14606)

2:48 PM EST on January 26, 2015 (GMT -0500)
western monroe county | Change Station
CLOSE
Current Station
Personal Weather Station
Location: Rochester, NY
Elevation: 535 ft
Nearby Weather Stations

Elev 535 ft 43.17 °N, 77.69 °W | Updated 5 seconds ago

Snow
Snow
19.8 °F
Feels Like 15 °F
N
3.5
Wind Variable Wind from SSW
Gusts 3.5 mph

Today
High -- | Low -- °F
--% Chance of Precip.
Yesterday
High -- | Low -- °F
Precip. -- in
7:32 AM 5:14 PM
Waxing Crescent, 46% visible
Pressure 29.92 in
Visibility 1.8 miles
Clouds Mostly Cloudy 2800 ft
Overcast 3600 ft
Windchill 15 °F
Dew Point -10 °F
Humidity 25%
Rainfall 0.00 in
Snow Depth Not available.
UV 1 out of 12
Pollen .10 out of 12
Air Quality Not available.
Flu Activity Not available.
SPECI KROC 261913Z 07010KT 1 3/4SM -SN BKN028 OVC036 M08/M12 A2992 RMK AO2 TWR VIS 2 P0000 T10831117

More Conditions Fewer Conditions

Pressure 29.92 in
Visibility 1.8 miles
Clouds Mostly Cloudy 2800 ft
Overcast 3600 ft
Windchill 15 °F
Dew Point -10 °F
Humidity 25%
Rainfall 0.00 in
Snow Depth Not available.
UV 1 out of 12
Pollen .10 out of 12
Air Quality Not available.
Flu Activity Not available.
SPECI KROC 261913Z 07010KT 1 3/4SM -SN BKN028 OVC036 M08/M12 A2992 RMK AO2 TWR VIS 2 P0000 T10831117

More Conditions Fewer Conditions

10-Day Weather Forecast

Almanac

Astronomy

Jan. 26, 2015 Rise Set
Actual Time
Civil Twilight
Nautical Twilight
Astronomical Twilight
Moon
Length of Visible Light
Length of Day
Tomorrow will be .
, % of the Moon is Illuminated

Today's Extremes

State Highs State Lows

Community

WunderPhotos

Upload Photos

1,790,338 photos uploaded!

WunderBlogs® & News

Nearby

Air Quality

  Air Quality AQ Index Pollutant
Not available.

Snow Depth

Station Depth Elevation

Earthquake Activity

City Distance Mag. Time & Date
Minimum magnitude displayed is 2.5.

Coastal Water Temperatures

Place Temperature

Nearby Weather Stations